Helmer, Indiana
Current Conditions -  °F | °C
As of 4:35 PM on Monday 22 Dec 2014 (Local Time) from KANQ Reporting Station
Overcast Overcast  
Wind Chill: 29°   Ceiling: 2800
Heat Index: 36°   Visibility: 7mi
Dew Point: 30°   Wind: 9mph
Humidity: 81%   Direction: 110°ESE
Pressure: 29.85"   Gusts: NA
Location:  41.5628°N, 85.1391°W
Report Text: KANQ 222135Z AUTO 11008KT 7SM BKN028 OVC033 02/M01 A2985 RMK
Loading
Personal Weather Stations






























Interactive Weather Map New forecast layout! Learn more

10-Day Weather Forecast

Advertisements
Track Severe Weather on mobile